Hovedside
METAR-TAF:

METAR-TAF

Lufthavner :

Hasvik, Norge

Hasvik lufthavn

breddegrad: 70-29N, lengdegrad: 022-09E, høyde over havet: 10 m

Gjeldene værobservasjon

Denne rapporten ble laget for 9 timer og 57 minutter siden, klokken 18:50 UTC
Vind 3 kt fra Sør
Temperatur -2°C
Luftfuktighet 69%
Trykk 1010 hPa
Sikt 10 km eller mer
ingen skyer under 1500 m og ingen bygeskyer

METAR: ENHK 241850Z 17003KT CAVOK M02/M07 Q1010

Tid: 06:47 (04:47 UTC)


TAF: fraværende

Værobservasjoner og værvarsel for over 4000 flyplasser (METAR- og TAF-rapporter).

Tilgjengelige stasjoner er representert av de røde og gule prikkene på kartet.

Hold musepekeren over prikken for å se navnet på stasjonen.

Klikk så for å se værobservasjoner og -varsler.

For å forandre kartet kan du klikke på den grønne knappen med svart kryss for å zoome inn, på den grønne knappen med strek for å zoome ut, eller på de grønne pilene for å se tilstøtende kart.


METAR-TAF: